sensor_id;sensor_type;location;lat;lon;timestamp;temperature;humidity
28947;DHT22;16052;50.930;5.326;2023-03-30T00:01:06;16.00;45.00
28947;DHT22;16052;50.930;5.326;2023-03-30T00:03:36;16.00;43.30
28947;DHT22;16052;50.930;5.326;2023-03-30T00:06:03;16.10;41.60
28947;DHT22;16052;50.930;5.326;2023-03-30T00:08:30;16.10;41.50
28947;DHT22;16052;50.930;5.326;2023-03-30T00:13:28;16.20;40.00
28947;DHT22;16052;50.930;5.326;2023-03-30T00:15:54;16.30;39.40
28947;DHT22;16052;50.930;5.326;2023-03-30T00:18:23;16.20;40.40
28947;DHT22;16052;50.930;5.326;2023-03-30T00:20:50;16.30;39.50
28947;DHT22;16052;50.930;5.326;2023-03-30T00:23:17;16.30;38.60
28947;DHT22;16052;50.930;5.326;2023-03-30T00:25:43;16.40;37.10
28947;DHT22;16052;50.930;5.326;2023-03-30T00:28:10;16.30;37.50
28947;DHT22;16052;50.930;5.326;2023-03-30T00:30:37;16.30;38.10
28947;DHT22;16052;50.930;5.326;2023-03-30T00:33:03;16.40;37.30
28947;DHT22;16052;50.930;5.326;2023-03-30T00:35:29;16.40;37.50
28947;DHT22;16052;50.930;5.326;2023-03-30T00:37:56;16.40;35.90
28947;DHT22;16052;50.930;5.326;2023-03-30T00:40:26;16.50;36.90
28947;DHT22;16052;50.930;5.326;2023-03-30T00:43:04;16.40;37.30
28947;DHT22;16052;50.930;5.326;2023-03-30T00:45:32;16.40;37.90
28947;DHT22;16052;50.930;5.326;2023-03-30T00:50:45;16.30;39.10
28947;DHT22;16052;50.930;5.326;2023-03-30T00:53:14;16.50;37.40
28947;DHT22;16052;50.930;5.326;2023-03-30T00:55:44;16.50;37.00
28947;DHT22;16052;50.930;5.326;2023-03-30T00:58:12;16.40;39.20
28947;DHT22;16052;50.930;5.326;2023-03-30T01:00:40;16.40;39.50
28947;DHT22;16052;50.930;5.326;2023-03-30T01:03:21;16.40;38.20
28947;DHT22;16052;50.930;5.326;2023-03-30T01:05:50;16.40;38.70
28947;DHT22;16052;50.930;5.326;2023-03-30T01:08:17;16.40;37.60
28947;DHT22;16052;50.930;5.326;2023-03-30T01:10:58;16.40;39.50
28947;DHT22;16052;50.930;5.326;2023-03-30T01:13:27;16.40;40.00
28947;DHT22;16052;50.930;5.326;2023-03-30T01:18:39;16.40;41.00
28947;DHT22;16052;50.930;5.326;2023-03-30T01:21:17;16.40;41.70
28947;DHT22;16052;50.930;5.326;2023-03-30T01:44:02;16.40;33.90
28947;DHT22;16052;50.930;5.326;2023-03-30T01:46:32;16.40;34.60
28947;DHT22;16052;50.930;5.326;2023-03-30T01:49:22;16.40;34.20
28947;DHT22;16052;50.930;5.326;2023-03-30T01:52:25;16.30;34.10
28947;DHT22;16052;50.930;5.326;2023-03-30T01:57:45;16.30;34.10
28947;DHT22;16052;50.930;5.326;2023-03-30T02:00:16;16.30;34.50
28947;DHT22;16052;50.930;5.326;2023-03-30T02:02:48;16.30;34.70
28947;DHT22;16052;50.930;5.326;2023-03-30T02:05:16;16.40;33.30
28947;DHT22;16052;50.930;5.326;2023-03-30T02:07:51;16.40;33.10
28947;DHT22;16052;50.930;5.326;2023-03-30T02:10:19;16.50;32.10
28947;DHT22;16052;50.930;5.326;2023-03-30T02:12:46;16.30;36.00
28947;DHT22;16052;50.930;5.326;2023-03-30T02:15:15;16.30;37.10
28947;DHT22;16052;50.930;5.326;2023-03-30T02:17:41;16.20;38.60
28947;DHT22;16052;50.930;5.326;2023-03-30T02:20:10;16.30;38.30
28947;DHT22;16052;50.930;5.326;2023-03-30T02:22:37;16.30;39.50
28947;DHT22;16052;50.930;5.326;2023-03-30T02:25:04;16.30;40.00
28947;DHT22;16052;50.930;5.326;2023-03-30T02:27:31;16.30;39.90
28947;DHT22;16052;50.930;5.326;2023-03-30T02:29:58;16.40;38.90
28947;DHT22;16052;50.930;5.326;2023-03-30T02:32:26;16.30;39.90
28947;DHT22;16052;50.930;5.326;2023-03-30T02:43:22;16.20;45.40
28947;DHT22;16052;50.930;5.326;2023-03-30T02:48:57;16.30;44.60
28947;DHT22;16052;50.930;5.326;2023-03-30T02:51:40;16.20;45.70
28947;DHT22;16052;50.930;5.326;2023-03-30T02:54:19;16.20;47.10
28947;DHT22;16052;50.930;5.326;2023-03-30T02:57:03;16.30;44.70
28947;DHT22;16052;50.930;5.326;2023-03-30T03:02:29;16.00;51.10
28947;DHT22;16052;50.930;5.326;2023-03-30T03:04:56;16.00;53.10
28947;DHT22;16052;50.930;5.326;2023-03-30T03:07:23;15.90;54.00
28947;DHT22;16052;50.930;5.326;2023-03-30T03:09:49;15.90;55.20
28947;DHT22;16052;50.930;5.326;2023-03-30T03:12:15;16.00;54.10
28947;DHT22;16052;50.930;5.326;2023-03-30T03:14:40;16.20;52.60
28947;DHT22;16052;50.930;5.326;2023-03-30T03:17:07;16.20;52.10
28947;DHT22;16052;50.930;5.326;2023-03-30T03:19:33;16.00;55.40
28947;DHT22;16052;50.930;5.326;2023-03-30T03:21:59;15.90;58.00
28947;DHT22;16052;50.930;5.326;2023-03-30T03:24:25;15.80;60.00
28947;DHT22;16052;50.930;5.326;2023-03-30T03:26:51;15.70;62.30
28947;DHT22;16052;50.930;5.326;2023-03-30T03:29:17;15.70;63.30
28947;DHT22;16052;50.930;5.326;2023-03-30T03:31:43;15.70;62.70
28947;DHT22;16052;50.930;5.326;2023-03-30T03:34:08;15.70;62.20
28947;DHT22;16052;50.930;5.326;2023-03-30T03:36:34;15.60;63.40
28947;DHT22;16052;50.930;5.326;2023-03-30T03:38:59;15.60;65.30
28947;DHT22;16052;50.930;5.326;2023-03-30T03:41:25;15.50;65.70
28947;DHT22;16052;50.930;5.326;2023-03-30T03:43:52;15.50;66.10
28947;DHT22;16052;50.930;5.326;2023-03-30T03:46:17;15.50;67.50
28947;DHT22;16052;50.930;5.326;2023-03-30T03:48:43;15.40;68.00
28947;DHT22;16052;50.930;5.326;2023-03-30T03:51:08;15.50;66.60
28947;DHT22;16052;50.930;5.326;2023-03-30T03:53:35;15.50;66.30
28947;DHT22;16052;50.930;5.326;2023-03-30T03:56:01;15.50;66.50
28947;DHT22;16052;50.930;5.326;2023-03-30T03:58:28;15.50;66.10
28947;DHT22;16052;50.930;5.326;2023-03-30T04:00:58;15.50;64.70
28947;DHT22;16052;50.930;5.326;2023-03-30T04:03:24;15.50;64.20
28947;DHT22;16052;50.930;5.326;2023-03-30T04:05:50;15.50;65.00
28947;DHT22;16052;50.930;5.326;2023-03-30T04:08:15;15.50;64.20
28947;DHT22;16052;50.930;5.326;2023-03-30T04:10:42;15.60;60.30
28947;DHT22;16052;50.930;5.326;2023-03-30T04:13:08;15.50;59.40
28947;DHT22;16052;50.930;5.326;2023-03-30T04:15:34;15.50;61.50
28947;DHT22;16052;50.930;5.326;2023-03-30T04:18:00;15.60;60.40
28947;DHT22;16052;50.930;5.326;2023-03-30T04:20:27;15.60;59.80
28947;DHT22;16052;50.930;5.326;2023-03-30T04:22:54;15.60;57.10
28947;DHT22;16052;50.930;5.326;2023-03-30T04:25:21;15.60;55.90
28947;DHT22;16052;50.930;5.326;2023-03-30T04:27:50;15.60;54.30
28947;DHT22;16052;50.930;5.326;2023-03-30T04:30:16;15.60;55.00
28947;DHT22;16052;50.930;5.326;2023-03-30T04:32:43;15.60;54.00
28947;DHT22;16052;50.930;5.326;2023-03-30T04:35:12;15.60;54.00
28947;DHT22;16052;50.930;5.326;2023-03-30T04:37:39;15.60;54.30
28947;DHT22;16052;50.930;5.326;2023-03-30T04:40:07;15.60;54.40
28947;DHT22;16052;50.930;5.326;2023-03-30T04:42:34;15.50;55.80
28947;DHT22;16052;50.930;5.326;2023-03-30T04:45:08;15.50;57.20
28947;DHT22;16052;50.930;5.326;2023-03-30T04:47:37;15.50;56.60
28947;DHT22;16052;50.930;5.326;2023-03-30T04:50:03;15.50;56.20
28947;DHT22;16052;50.930;5.326;2023-03-30T04:52:29;15.50;56.70
28947;DHT22;16052;50.930;5.326;2023-03-30T04:54:54;15.40;59.90
28947;DHT22;16052;50.930;5.326;2023-03-30T04:57:20;15.40;60.50
28947;DHT22;16052;50.930;5.326;2023-03-30T04:59:46;15.40;61.30
28947;DHT22;16052;50.930;5.326;2023-03-30T05:02:12;15.40;64.50
28947;DHT22;16052;50.930;5.326;2023-03-30T05:04:38;15.30;66.20
28947;DHT22;16052;50.930;5.326;2023-03-30T05:07:07;15.30;67.00
28947;DHT22;16052;50.930;5.326;2023-03-30T05:09:34;15.40;68.80
28947;DHT22;16052;50.930;5.326;2023-03-30T05:11:59;15.20;70.50
28947;DHT22;16052;50.930;5.326;2023-03-30T05:14:25;15.10;73.80
28947;DHT22;16052;50.930;5.326;2023-03-30T05:16:51;15.00;75.10
28947;DHT22;16052;50.930;5.326;2023-03-30T05:19:17;15.00;75.20
28947;DHT22;16052;50.930;5.326;2023-03-30T05:21:42;14.90;76.60
28947;DHT22;16052;50.930;5.326;2023-03-30T05:24:10;15.00;76.20
28947;DHT22;16052;50.930;5.326;2023-03-30T05:26:36;14.90;76.80
28947;DHT22;16052;50.930;5.326;2023-03-30T05:29:01;14.80;77.90
28947;DHT22;16052;50.930;5.326;2023-03-30T05:31:27;14.90;76.80
28947;DHT22;16052;50.930;5.326;2023-03-30T05:33:53;14.90;77.80
28947;DHT22;16052;50.930;5.326;2023-03-30T05:36:18;14.90;77.60
28947;DHT22;16052;50.930;5.326;2023-03-30T05:38:45;14.90;77.20
28947;DHT22;16052;50.930;5.326;2023-03-30T05:41:11;14.90;75.80
28947;DHT22;16052;50.930;5.326;2023-03-30T05:43:37;15.00;76.30
28947;DHT22;16052;50.930;5.326;2023-03-30T05:46:03;14.90;79.10
28947;DHT22;16052;50.930;5.326;2023-03-30T05:48:29;14.80;79.70
28947;DHT22;16052;50.930;5.326;2023-03-30T05:50:56;14.70;80.70
28947;DHT22;16052;50.930;5.326;2023-03-30T05:53:21;14.70;81.30
28947;DHT22;16052;50.930;5.326;2023-03-30T05:55:48;14.70;81.10
28947;DHT22;16052;50.930;5.326;2023-03-30T05:58:15;14.80;81.70
28947;DHT22;16052;50.930;5.326;2023-03-30T06:00:42;14.80;81.80
28947;DHT22;16052;50.930;5.326;2023-03-30T06:03:09;14.80;82.40
28947;DHT22;16052;50.930;5.326;2023-03-30T06:05:39;14.80;83.30
28947;DHT22;16052;50.930;5.326;2023-03-30T06:08:09;14.70;87.60
28947;DHT22;16052;50.930;5.326;2023-03-30T06:10:35;14.60;91.90
28947;DHT22;16052;50.930;5.326;2023-03-30T06:13:01;14.50;93.70
28947;DHT22;16052;50.930;5.326;2023-03-30T06:15:27;14.40;96.70
28947;DHT22;16052;50.930;5.326;2023-03-30T06:17:53;14.30;97.80
28947;DHT22;16052;50.930;5.326;2023-03-30T06:20:20;14.10;99.90
28947;DHT22;16052;50.930;5.326;2023-03-30T06:22:51;13.90;99.90
28947;DHT22;16052;50.930;5.326;2023-03-30T06:25:17;13.90;99.90
28947;DHT22;16052;50.930;5.326;2023-03-30T06:27:47;13.80;99.90
28947;DHT22;16052;50.930;5.326;2023-03-30T06:30:13;13.70;99.90
28947;DHT22;16052;50.930;5.326;2023-03-30T06:32:39;13.70;99.90
28947;DHT22;16052;50.930;5.326;2023-03-30T06:35:05;13.60;99.90
28947;DHT22;16052;50.930;5.326;2023-03-30T06:37:31;13.50;99.90
28947;DHT22;16052;50.930;5.326;2023-03-30T06:39:57;13.50;99.90
28947;DHT22;16052;50.930;5.326;2023-03-30T06:42:25;13.40;99.90
28947;DHT22;16052;50.930;5.326;2023-03-30T06:44:52;13.50;99.90
28947;DHT22;16052;50.930;5.326;2023-03-30T06:47:17;13.40;99.90
28947;DHT22;16052;50.930;5.326;2023-03-30T06:49:44;13.40;99.90
28947;DHT22;16052;50.930;5.326;2023-03-30T06:52:10;13.40;99.90
28947;DHT22;16052;50.930;5.326;2023-03-30T06:54:37;13.50;99.90
28947;DHT22;16052;50.930;5.326;2023-03-30T06:57:03;13.40;99.90
28947;DHT22;16052;50.930;5.326;2023-03-30T06:59:29;13.50;99.90
28947;DHT22;16052;50.930;5.326;2023-03-30T07:01:54;13.50;99.90
28947;DHT22;16052;50.930;5.326;2023-03-30T07:04:20;13.60;99.90
28947;DHT22;16052;50.930;5.326;2023-03-30T07:06:46;13.60;99.90
28947;DHT22;16052;50.930;5.326;2023-03-30T07:09:12;13.60;99.90
28947;DHT22;16052;50.930;5.326;2023-03-30T07:11:41;13.60;99.90
28947;DHT22;16052;50.930;5.326;2023-03-30T07:14:06;13.60;99.90
28947;DHT22;16052;50.930;5.326;2023-03-30T07:16:37;13.60;99.90
28947;DHT22;16052;50.930;5.326;2023-03-30T07:19:06;13.60;99.90
28947;DHT22;16052;50.930;5.326;2023-03-30T07:21:32;13.70;99.90
28947;DHT22;16052;50.930;5.326;2023-03-30T07:23:58;13.70;99.90
28947;DHT22;16052;50.930;5.326;2023-03-30T07:26:33;13.70;99.90
28947;DHT22;16052;50.930;5.326;2023-03-30T07:29:03;13.70;99.90
28947;DHT22;16052;50.930;5.326;2023-03-30T07:31:31;13.70;99.90
28947;DHT22;16052;50.930;5.326;2023-03-30T07:33:59;13.80;99.90
28947;DHT22;16052;50.930;5.326;2023-03-30T07:36:30;13.80;99.90
28947;DHT22;16052;50.930;5.326;2023-03-30T07:38:57;13.70;99.90
28947;DHT22;16052;50.930;5.326;2023-03-30T07:41:26;13.60;99.90
28947;DHT22;16052;50.930;5.326;2023-03-30T07:43:52;13.60;99.90
28947;DHT22;16052;50.930;5.326;2023-03-30T07:46:20;13.60;99.90
28947;DHT22;16052;50.930;5.326;2023-03-30T07:48:48;13.50;99.90
28947;DHT22;16052;50.930;5.326;2023-03-30T07:51:17;13.40;99.90
28947;DHT22;16052;50.930;5.326;2023-03-30T07:53:47;13.30;99.90
28947;DHT22;16052;50.930;5.326;2023-03-30T07:56:19;13.10;99.90
28947;DHT22;16052;50.930;5.326;2023-03-30T07:58:44;12.90;99.90
28947;DHT22;16052;50.930;5.326;2023-03-30T08:01:17;12.80;99.90
28947;DHT22;16052;50.930;5.326;2023-03-30T08:03:45;12.80;99.90
28947;DHT22;16052;50.930;5.326;2023-03-30T08:06:15;12.70;99.90
28947;DHT22;16052;50.930;5.326;2023-03-30T08:08:42;12.70;99.90
28947;DHT22;16052;50.930;5.326;2023-03-30T08:11:11;12.70;99.90
28947;DHT22;16052;50.930;5.326;2023-03-30T08:13:39;12.80;99.90
28947;DHT22;16052;50.930;5.326;2023-03-30T08:16:07;12.80;99.90
28947;DHT22;16052;50.930;5.326;2023-03-30T08:18:36;12.80;99.90
28947;DHT22;16052;50.930;5.326;2023-03-30T08:21:02;12.90;99.90
28947;DHT22;16052;50.930;5.326;2023-03-30T08:23:30;13.00;99.90
28947;DHT22;16052;50.930;5.326;2023-03-30T08:25:56;13.00;99.90
28947;DHT22;16052;50.930;5.326;2023-03-30T08:28:22;13.00;99.90
28947;DHT22;16052;50.930;5.326;2023-03-30T08:30:49;13.00;99.90
28947;DHT22;16052;50.930;5.326;2023-03-30T08:33:18;13.00;99.90
28947;DHT22;16052;50.930;5.326;2023-03-30T08:35:46;13.10;99.90
28947;DHT22;16052;50.930;5.326;2023-03-30T08:38:14;13.00;99.90
28947;DHT22;16052;50.930;5.326;2023-03-30T08:40:42;13.00;99.90
28947;DHT22;16052;50.930;5.326;2023-03-30T08:45:59;12.90;99.90
28947;DHT22;16052;50.930;5.326;2023-03-30T08:48:28;13.00;99.90
28947;DHT22;16052;50.930;5.326;2023-03-30T08:51:14;12.90;99.90
28947;DHT22;16052;50.930;5.326;2023-03-30T08:53:44;12.90;99.90
28947;DHT22;16052;50.930;5.326;2023-03-30T08:59:16;12.80;99.90
28947;DHT22;16052;50.930;5.326;2023-03-30T09:10:13;12.70;99.90
28947;DHT22;16052;50.930;5.326;2023-03-30T09:12:46;12.70;99.90
28947;DHT22;16052;50.930;5.326;2023-03-30T09:15:16;12.80;99.90
28947;DHT22;16052;50.930;5.326;2023-03-30T09:17:55;12.90;99.90
28947;DHT22;16052;50.930;5.326;2023-03-30T09:20:30;12.90;99.90
28947;DHT22;16052;50.930;5.326;2023-03-30T09:23:01;12.80;99.90
28947;DHT22;16052;50.930;5.326;2023-03-30T09:25:40;12.80;99.90
28947;DHT22;16052;50.930;5.326;2023-03-30T09:31:22;12.90;99.90
28947;DHT22;16052;50.930;5.326;2023-03-30T09:36:53;13.00;99.90
28947;DHT22;16052;50.930;5.326;2023-03-30T09:39:27;13.10;99.90
28947;DHT22;16052;50.930;5.326;2023-03-30T09:45:25;13.40;99.90
28947;DHT22;16052;50.930;5.326;2023-03-30T09:47:53;13.60;99.90
28947;DHT22;16052;50.930;5.326;2023-03-30T09:50:27;13.70;99.90
28947;DHT22;16052;50.930;5.326;2023-03-30T09:53:26;13.90;99.90
28947;DHT22;16052;50.930;5.326;2023-03-30T09:56:08;13.70;99.90
28947;DHT22;16052;50.930;5.326;2023-03-30T09:58:36;13.70;99.90
28947;DHT22;16052;50.930;5.326;2023-03-30T10:01:03;13.50;99.90
28947;DHT22;16052;50.930;5.326;2023-03-30T10:03:29;13.50;99.90
28947;DHT22;16052;50.930;5.326;2023-03-30T10:08:51;13.60;99.90
28947;DHT22;16052;50.930;5.326;2023-03-30T10:11:42;13.80;99.90
28947;DHT22;16052;50.930;5.326;2023-03-30T10:16:55;13.90;99.90
28947;DHT22;16052;50.930;5.326;2023-03-30T10:19:21;14.00;99.90
28947;DHT22;16052;50.930;5.326;2023-03-30T10:21:55;14.00;99.90
28947;DHT22;16052;50.930;5.326;2023-03-30T10:24:28;14.10;99.90
28947;DHT22;16052;50.930;5.326;2023-03-30T10:27:07;14.20;99.90
28947;DHT22;16052;50.930;5.326;2023-03-30T10:29:37;14.20;99.90
28947;DHT22;16052;50.930;5.326;2023-03-30T10:32:12;14.20;99.90
28947;DHT22;16052;50.930;5.326;2023-03-30T10:34:42;14.10;99.90
28947;DHT22;16052;50.930;5.326;2023-03-30T10:37:29;14.10;99.90
28947;DHT22;16052;50.930;5.326;2023-03-30T10:40:00;14.00;99.90
28947;DHT22;16052;50.930;5.326;2023-03-30T10:42:29;14.00;99.90
28947;DHT22;16052;50.930;5.326;2023-03-30T10:45:03;13.90;99.90
28947;DHT22;16052;50.930;5.326;2023-03-30T10:50:54;14.10;99.90
28947;DHT22;16052;50.930;5.326;2023-03-30T11:04:05;13.90;99.90
28947;DHT22;16052;50.930;5.326;2023-03-30T11:06:46;13.60;99.90
28947;DHT22;16052;50.930;5.326;2023-03-30T11:09:16;13.40;99.90
28947;DHT22;16052;50.930;5.326;2023-03-30T11:12:13;13.10;99.90
28947;DHT22;16052;50.930;5.326;2023-03-30T11:15:03;12.80;99.90
28947;DHT22;16052;50.930;5.326;2023-03-30T11:17:48;12.50;99.90
28947;DHT22;16052;50.930;5.326;2023-03-30T11:20:38;12.30;99.90
28947;DHT22;16052;50.930;5.326;2023-03-30T11:29:30;12.20;99.90
28947;DHT22;16052;50.930;5.326;2023-03-30T11:32:19;12.30;99.90
28947;DHT22;16052;50.930;5.326;2023-03-30T11:34:59;12.40;99.90
28947;DHT22;16052;50.930;5.326;2023-03-30T11:37:37;12.40;99.90
28947;DHT22;16052;50.930;5.326;2023-03-30T11:40:19;12.40;99.90
28947;DHT22;16052;50.930;5.326;2023-03-30T11:42:46;12.60;99.90
28947;DHT22;16052;50.930;5.326;2023-03-30T11:50:52;12.80;99.90
28947;DHT22;16052;50.930;5.326;2023-03-30T11:53:39;12.90;99.90
28947;DHT22;16052;50.930;5.326;2023-03-30T11:56:59;12.90;99.90
28947;DHT22;16052;50.930;5.326;2023-03-30T12:02:20;12.90;99.90
28947;DHT22;16052;50.930;5.326;2023-03-30T12:05:08;13.10;99.90
28947;DHT22;16052;50.930;5.326;2023-03-30T12:10:32;13.30;99.90
28947;DHT22;16052;50.930;5.326;2023-03-30T12:13:14;13.40;99.90
28947;DHT22;16052;50.930;5.326;2023-03-30T12:15:42;13.40;99.90
28947;DHT22;16052;50.930;5.326;2023-03-30T12:19:02;13.50;99.90
28947;DHT22;16052;50.930;5.326;2023-03-30T12:26:38;14.00;99.90
28947;DHT22;16052;50.930;5.326;2023-03-30T12:29:12;14.20;99.90
28947;DHT22;16052;50.930;5.326;2023-03-30T12:34:26;14.60;99.90
28947;DHT22;16052;50.930;5.326;2023-03-30T12:37:48;14.70;99.90
28947;DHT22;16052;50.930;5.326;2023-03-30T12:40:06;14.80;99.90
28947;DHT22;16052;50.930;5.326;2023-03-30T12:42:39;14.80;96.40
28947;DHT22;16052;50.930;5.326;2023-03-30T12:45:36;15.00;99.90
28947;DHT22;16052;50.930;5.326;2023-03-30T12:48:18;15.20;99.40
28947;DHT22;16052;50.930;5.326;2023-03-30T12:51:33;15.30;95.40
28947;DHT22;16052;50.930;5.326;2023-03-30T13:05:30;15.60;79.60
28947;DHT22;16052;50.930;5.326;2023-03-30T13:08:05;15.60;81.00
28947;DHT22;16052;50.930;5.326;2023-03-30T13:10:38;15.80;84.80
28947;DHT22;16052;50.930;5.326;2023-03-30T13:13:23;15.90;76.90
28947;DHT22;16052;50.930;5.326;2023-03-30T13:16:08;16.00;68.90
28947;DHT22;16052;50.930;5.326;2023-03-30T13:18:50;16.00;68.00
28947;DHT22;16052;50.930;5.326;2023-03-30T13:21:22;15.90;70.40
28947;DHT22;16052;50.930;5.326;2023-03-30T13:24:02;16.10;66.30
28947;DHT22;16052;50.930;5.326;2023-03-30T13:26:39;16.20;69.90
28947;DHT22;16052;50.930;5.326;2023-03-30T13:29:11;16.20;69.90
28947;DHT22;16052;50.930;5.326;2023-03-30T13:32:21;16.10;70.40
28947;DHT22;16052;50.930;5.326;2023-03-30T13:37:23;16.30;60.40
28947;DHT22;16052;50.930;5.326;2023-03-30T13:40:14;16.30;56.10
28947;DHT22;16052;50.930;5.326;2023-03-30T13:43:02;16.30;53.30
28947;DHT22;16052;50.930;5.326;2023-03-30T13:46:03;16.40;51.40
28947;DHT22;16052;50.930;5.326;2023-03-30T13:51:12;16.00;51.80
28947;DHT22;16052;50.930;5.326;2023-03-30T13:53:47;16.00;51.70
28947;DHT22;16052;50.930;5.326;2023-03-30T13:56:18;16.00;53.10
28947;DHT22;16052;50.930;5.326;2023-03-30T13:58:52;15.90;57.60
28947;DHT22;16052;50.930;5.326;2023-03-30T14:01:23;15.90;59.90
28947;DHT22;16052;50.930;5.326;2023-03-30T14:03:55;16.00;55.70
28947;DHT22;16052;50.930;5.326;2023-03-30T14:06:26;15.90;59.00
28947;DHT22;16052;50.930;5.326;2023-03-30T14:11:49;16.10;67.50
28947;DHT22;16052;50.930;5.326;2023-03-30T14:16:48;16.20;70.90
28947;DHT22;16052;50.930;5.326;2023-03-30T14:25:04;16.00;68.20
28947;DHT22;16052;50.930;5.326;2023-03-30T14:27:37;16.00;71.30
28947;DHT22;16052;50.930;5.326;2023-03-30T14:30:21;16.10;75.50
28947;DHT22;16052;50.930;5.326;2023-03-30T14:33:12;16.10;67.20
28947;DHT22;16052;50.930;5.326;2023-03-30T14:35:52;16.00;76.50
28947;DHT22;16052;50.930;5.326;2023-03-30T14:38:24;15.80;77.30
28947;DHT22;16052;50.930;5.326;2023-03-30T14:40:52;15.70;80.00
28947;DHT22;16052;50.930;5.326;2023-03-30T14:43:29;15.70;80.30
28947;DHT22;16052;50.930;5.326;2023-03-30T14:45:58;15.80;82.20
28947;DHT22;16052;50.930;5.326;2023-03-30T14:48:35;15.80;79.70
28947;DHT22;16052;50.930;5.326;2023-03-30T14:51:05;15.90;80.30
28947;DHT22;16052;50.930;5.326;2023-03-30T14:53:40;15.90;73.80
28947;DHT22;16052;50.930;5.326;2023-03-30T14:56:08;15.90;78.50
28947;DHT22;16052;50.930;5.326;2023-03-30T14:58:34;16.00;76.10
28947;DHT22;16052;50.930;5.326;2023-03-30T15:01:04;16.10;73.90
28947;DHT22;16052;50.930;5.326;2023-03-30T15:03:32;16.20;70.80
28947;DHT22;16052;50.930;5.326;2023-03-30T15:06:03;16.30;52.60
28947;DHT22;16052;50.930;5.326;2023-03-30T15:08:32;16.30;55.60
28947;DHT22;16052;50.930;5.326;2023-03-30T15:11:24;16.20;54.50
28947;DHT22;16052;50.930;5.326;2023-03-30T15:13:55;16.20;53.00
28947;DHT22;16052;50.930;5.326;2023-03-30T15:16:27;16.10;54.50
28947;DHT22;16052;50.930;5.326;2023-03-30T15:19:12;16.00;50.80
28947;DHT22;16052;50.930;5.326;2023-03-30T15:21:44;16.10;50.90
28947;DHT22;16052;50.930;5.326;2023-03-30T15:24:15;16.10;52.60
28947;DHT22;16052;50.930;5.326;2023-03-30T15:26:45;15.90;55.30
28947;DHT22;16052;50.930;5.326;2023-03-30T15:29:14;15.70;57.70
28947;DHT22;16052;50.930;5.326;2023-03-30T15:31:42;15.50;63.10
28947;DHT22;16052;50.930;5.326;2023-03-30T15:34:16;15.40;73.10
28947;DHT22;16052;50.930;5.326;2023-03-30T15:36:43;15.30;82.80
28947;DHT22;16052;50.930;5.326;2023-03-30T15:39:29;15.40;85.90
28947;DHT22;16052;50.930;5.326;2023-03-30T15:42:06;15.40;85.20
28947;DHT22;16052;50.930;5.326;2023-03-30T15:44:35;15.30;85.90
28947;DHT22;16052;50.930;5.326;2023-03-30T15:47:05;15.30;85.40
28947;DHT22;16052;50.930;5.326;2023-03-30T15:49:42;15.30;87.90
28947;DHT22;16052;50.930;5.326;2023-03-30T15:52:33;15.20;91.10
28947;DHT22;16052;50.930;5.326;2023-03-30T15:55:21;15.40;89.10
28947;DHT22;16052;50.930;5.326;2023-03-30T15:57:50;15.40;90.40
28947;DHT22;16052;50.930;5.326;2023-03-30T16:00:27;15.40;89.10
28947;DHT22;16052;50.930;5.326;2023-03-30T16:02:59;15.50;90.20
28947;DHT22;16052;50.930;5.326;2023-03-30T16:05:32;15.50;84.60
28947;DHT22;16052;50.930;5.326;2023-03-30T16:07:58;15.50;86.50
28947;DHT22;16052;50.930;5.326;2023-03-30T16:10:27;15.50;82.10
28947;DHT22;16052;50.930;5.326;2023-03-30T16:12:55;15.40;80.90
28947;DHT22;16052;50.930;5.326;2023-03-30T16:15:26;15.30;79.70
28947;DHT22;16052;50.930;5.326;2023-03-30T16:17:54;15.40;82.30
28947;DHT22;16052;50.930;5.326;2023-03-30T16:20:27;15.30;82.30
28947;DHT22;16052;50.930;5.326;2023-03-30T16:22:59;15.40;84.20
28947;DHT22;16052;50.930;5.326;2023-03-30T16:25:27;15.40;84.20
28947;DHT22;16052;50.930;5.326;2023-03-30T16:27:53;15.50;84.60
28947;DHT22;16052;50.930;5.326;2023-03-30T16:30:35;15.50;84.60
28947;DHT22;16052;50.930;5.326;2023-03-30T16:33:04;15.50;85.50
28947;DHT22;16052;50.930;5.326;2023-03-30T16:35:32;15.40;85.50
28947;DHT22;16052;50.930;5.326;2023-03-30T16:37:57;15.40;86.80
28947;DHT22;16052;50.930;5.326;2023-03-30T16:43:03;15.20;90.60
28947;DHT22;16052;50.930;5.326;2023-03-30T16:45:31;15.10;92.30
28947;DHT22;16052;50.930;5.326;2023-03-30T16:47:57;15.10;92.30
28947;DHT22;16052;50.930;5.326;2023-03-30T16:52:53;15.10;93.60
28947;DHT22;16052;50.930;5.326;2023-03-30T16:55:18;15.20;93.40
28947;DHT22;16052;50.930;5.326;2023-03-30T16:57:44;15.20;93.30
28947;DHT22;16052;50.930;5.326;2023-03-30T17:00:29;15.10;93.60
28947;DHT22;16052;50.930;5.326;2023-03-30T17:02:56;15.20;93.70
28947;DHT22;16052;50.930;5.326;2023-03-30T17:05:28;15.20;92.40
28947;DHT22;16052;50.930;5.326;2023-03-30T17:08:04;15.20;91.90
28947;DHT22;16052;50.930;5.326;2023-03-30T17:10:34;15.20;92.20
28947;DHT22;16052;50.930;5.326;2023-03-30T17:13:01;15.20;92.00
28947;DHT22;16052;50.930;5.326;2023-03-30T17:15:27;15.20;92.90
28947;DHT22;16052;50.930;5.326;2023-03-30T17:17:54;15.30;93.20
28947;DHT22;16052;50.930;5.326;2023-03-30T17:22:48;15.10;92.80
28947;DHT22;16052;50.930;5.326;2023-03-30T17:25:15;15.00;91.20
28947;DHT22;16052;50.930;5.326;2023-03-30T17:27:46;15.00;88.30
28947;DHT22;16052;50.930;5.326;2023-03-30T17:30:26;14.80;89.90
28947;DHT22;16052;50.930;5.326;2023-03-30T17:32:54;14.80;90.30
28947;DHT22;16052;50.930;5.326;2023-03-30T17:35:23;14.80;90.90
28947;DHT22;16052;50.930;5.326;2023-03-30T17:37:50;14.70;90.70
28947;DHT22;16052;50.930;5.326;2023-03-30T17:40:35;14.60;90.40
28947;DHT22;16052;50.930;5.326;2023-03-30T17:43:10;14.50;90.80
28947;DHT22;16052;50.930;5.326;2023-03-30T17:45:37;14.40;91.80
28947;DHT22;16052;50.930;5.326;2023-03-30T17:48:05;14.30;92.80
28947;DHT22;16052;50.930;5.326;2023-03-30T17:50:36;14.30;93.40
28947;DHT22;16052;50.930;5.326;2023-03-30T17:53:04;14.40;94.80
28947;DHT22;16052;50.930;5.326;2023-03-30T17:55:31;14.40;95.90
28947;DHT22;16052;50.930;5.326;2023-03-30T17:57:58;14.50;96.90
28947;DHT22;16052;50.930;5.326;2023-03-30T18:00:31;14.60;97.40
28947;DHT22;16052;50.930;5.326;2023-03-30T18:02:59;14.60;98.00
28947;DHT22;16052;50.930;5.326;2023-03-30T18:05:30;14.60;98.90
28947;DHT22;16052;50.930;5.326;2023-03-30T18:08:02;14.50;99.90
28947;DHT22;16052;50.930;5.326;2023-03-30T18:10:34;14.40;99.90
28947;DHT22;16052;50.930;5.326;2023-03-30T18:13:00;14.30;99.90
28947;DHT22;16052;50.930;5.326;2023-03-30T18:15:29;14.10;99.90
28947;DHT22;16052;50.930;5.326;2023-03-30T18:17:56;14.10;99.90
28947;DHT22;16052;50.930;5.326;2023-03-30T18:20:40;14.00;99.90
28947;DHT22;16052;50.930;5.326;2023-03-30T18:23:07;14.00;99.90
28947;DHT22;16052;50.930;5.326;2023-03-30T18:25:33;14.00;99.90